sensor_id;sensor_type;location;lat;lon;timestamp;pressure;altitude;pressure_sealevel;temperature;humidity
13422;BME280;6782;55.904;13.396;2022-09-17T00:01:28;62650.44;;;-143.06;100.00
13422;BME280;6782;55.904;13.396;2022-09-17T00:04:19;62650.44;;;-143.06;100.00
13422;BME280;6782;55.904;13.396;2022-09-17T00:07:07;62650.44;;;-143.06;100.00
13422;BME280;6782;55.904;13.396;2022-09-17T00:09:55;62650.44;;;-143.06;100.00
13422;BME280;6782;55.904;13.396;2022-09-17T00:12:42;62650.44;;;-143.06;100.00
13422;BME280;6782;55.904;13.396;2022-09-17T00:15:30;62650.44;;;-143.06;100.00
13422;BME280;6782;55.904;13.396;2022-09-17T00:18:18;62650.44;;;-143.06;100.00
13422;BME280;6782;55.904;13.396;2022-09-17T00:21:14;62650.44;;;-143.06;100.00
13422;BME280;6782;55.904;13.396;2022-09-17T00:24:05;62650.44;;;-143.06;100.00
13422;BME280;6782;55.904;13.396;2022-09-17T00:26:53;62650.44;;;-143.06;100.00
13422;BME280;6782;55.904;13.396;2022-09-17T00:29:40;62650.44;;;-143.06;100.00
13422;BME280;6782;55.904;13.396;2022-09-17T00:32:27;62650.44;;;-143.06;100.00
13422;BME280;6782;55.904;13.396;2022-09-17T00:35:15;62650.44;;;-143.06;100.00
13422;BME280;6782;55.904;13.396;2022-09-17T00:38:04;62650.44;;;-143.06;100.00
13422;BME280;6782;55.904;13.396;2022-09-17T00:40:52;62650.44;;;-143.06;100.00
13422;BME280;6782;55.904;13.396;2022-09-17T00:43:42;62650.44;;;-143.06;100.00
13422;BME280;6782;55.904;13.396;2022-09-17T00:46:37;62650.44;;;-143.06;100.00
13422;BME280;6782;55.904;13.396;2022-09-17T00:49:28;62650.44;;;-143.06;100.00
13422;BME280;6782;55.904;13.396;2022-09-17T00:52:19;62650.44;;;-143.06;100.00
13422;BME280;6782;55.904;13.396;2022-09-17T00:55:17;62650.44;;;-143.06;100.00
13422;BME280;6782;55.904;13.396;2022-09-17T00:58:08;62650.44;;;-143.06;100.00
13422;BME280;6782;55.904;13.396;2022-09-17T01:00:57;62650.44;;;-143.06;100.00
13422;BME280;6782;55.904;13.396;2022-09-17T01:03:45;62650.44;;;-143.06;100.00
13422;BME280;6782;55.904;13.396;2022-09-17T01:06:34;62650.44;;;-143.06;100.00
13422;BME280;6782;55.904;13.396;2022-09-17T01:09:30;62650.44;;;-143.06;100.00
13422;BME280;6782;55.904;13.396;2022-09-17T01:12:39;62650.44;;;-143.06;100.00
13422;BME280;6782;55.904;13.396;2022-09-17T01:15:34;62650.44;;;-143.06;100.00
13422;BME280;6782;55.904;13.396;2022-09-17T01:18:35;62650.44;;;-143.06;100.00
13422;BME280;6782;55.904;13.396;2022-09-17T01:21:48;62650.44;;;-143.06;100.00
13422;BME280;6782;55.904;13.396;2022-09-17T01:25:07;62650.44;;;-143.06;100.00
13422;BME280;6782;55.904;13.396;2022-09-17T01:28:27;62650.44;;;-143.06;100.00
13422;BME280;6782;55.904;13.396;2022-09-17T01:31:28;62650.44;;;-143.06;100.00
13422;BME280;6782;55.904;13.396;2022-09-17T01:34:24;62650.44;;;-143.06;100.00
13422;BME280;6782;55.904;13.396;2022-09-17T01:37:20;62650.44;;;-143.06;100.00
13422;BME280;6782;55.904;13.396;2022-09-17T01:40:14;62650.44;;;-143.06;100.00
13422;BME280;6782;55.904;13.396;2022-09-17T01:43:07;62650.44;;;-143.06;100.00
13422;BME280;6782;55.904;13.396;2022-09-17T01:46:01;62650.44;;;-143.06;100.00
13422;BME280;6782;55.904;13.396;2022-09-17T01:48:57;62650.44;;;-143.06;100.00
13422;BME280;6782;55.904;13.396;2022-09-17T01:51:47;62650.44;;;-143.06;100.00
13422;BME280;6782;55.904;13.396;2022-09-17T01:54:39;62650.44;;;-143.06;100.00
13422;BME280;6782;55.904;13.396;2022-09-17T01:57:33;62650.44;;;-143.06;100.00
13422;BME280;6782;55.904;13.396;2022-09-17T02:00:22;62650.44;;;-143.06;100.00
13422;BME280;6782;55.904;13.396;2022-09-17T02:03:14;62650.44;;;-143.06;100.00
13422;BME280;6782;55.904;13.396;2022-09-17T02:06:09;62650.44;;;-143.06;100.00
13422;BME280;6782;55.904;13.396;2022-09-17T02:09:01;62650.44;;;-143.06;100.00
13422;BME280;6782;55.904;13.396;2022-09-17T02:11:55;62650.44;;;-143.06;100.00
13422;BME280;6782;55.904;13.396;2022-09-17T02:14:47;62650.44;;;-143.06;100.00
13422;BME280;6782;55.904;13.396;2022-09-17T02:17:39;62650.44;;;-143.06;100.00
13422;BME280;6782;55.904;13.396;2022-09-17T02:20:37;62650.44;;;-143.06;100.00
13422;BME280;6782;55.904;13.396;2022-09-17T02:23:32;62650.44;;;-143.06;100.00
13422;BME280;6782;55.904;13.396;2022-09-17T02:26:22;62650.44;;;-143.06;100.00
13422;BME280;6782;55.904;13.396;2022-09-17T02:29:15;62650.44;;;-143.06;100.00
13422;BME280;6782;55.904;13.396;2022-09-17T02:32:05;62650.44;;;-143.06;100.00
13422;BME280;6782;55.904;13.396;2022-09-17T02:34:54;62650.44;;;-143.06;100.00
13422;BME280;6782;55.904;13.396;2022-09-17T02:37:43;62650.44;;;-143.06;100.00
13422;BME280;6782;55.904;13.396;2022-09-17T02:40:35;62650.44;;;-143.06;100.00
13422;BME280;6782;55.904;13.396;2022-09-17T02:43:35;62650.44;;;-143.06;100.00
13422;BME280;6782;55.904;13.396;2022-09-17T02:46:42;62650.44;;;-143.06;100.00
13422;BME280;6782;55.904;13.396;2022-09-17T02:49:42;62650.44;;;-143.06;100.00
13422;BME280;6782;55.904;13.396;2022-09-17T02:52:48;62650.44;;;-143.06;100.00
13422;BME280;6782;55.904;13.396;2022-09-17T02:55:49;62650.44;;;-143.06;100.00
13422;BME280;6782;55.904;13.396;2022-09-17T02:58:45;62650.44;;;-143.06;100.00
13422;BME280;6782;55.904;13.396;2022-09-17T03:01:39;62650.44;;;-143.06;100.00
13422;BME280;6782;55.904;13.396;2022-09-17T03:04:30;62650.44;;;-143.06;100.00
13422;BME280;6782;55.904;13.396;2022-09-17T03:07:19;62650.44;;;-143.06;100.00
13422;BME280;6782;55.904;13.396;2022-09-17T03:10:08;62650.44;;;-143.06;100.00
13422;BME280;6782;55.904;13.396;2022-09-17T03:12:57;62650.44;;;-143.06;100.00
13422;BME280;6782;55.904;13.396;2022-09-17T03:15:44;62650.44;;;-143.06;100.00
13422;BME280;6782;55.904;13.396;2022-09-17T03:18:32;62650.44;;;-143.06;100.00
13422;BME280;6782;55.904;13.396;2022-09-17T03:21:20;62650.44;;;-143.06;100.00
13422;BME280;6782;55.904;13.396;2022-09-17T03:24:08;62650.44;;;-143.06;100.00
13422;BME280;6782;55.904;13.396;2022-09-17T03:26:56;62650.44;;;-143.06;100.00
13422;BME280;6782;55.904;13.396;2022-09-17T03:29:46;62650.44;;;-143.06;100.00
13422;BME280;6782;55.904;13.396;2022-09-17T03:32:33;62650.44;;;-143.06;100.00
13422;BME280;6782;55.904;13.396;2022-09-17T03:35:21;62650.44;;;-143.06;100.00
13422;BME280;6782;55.904;13.396;2022-09-17T03:38:08;62650.44;;;-143.06;100.00
13422;BME280;6782;55.904;13.396;2022-09-17T03:40:57;62650.44;;;-143.06;100.00
13422;BME280;6782;55.904;13.396;2022-09-17T03:43:45;62650.44;;;-143.06;100.00
13422;BME280;6782;55.904;13.396;2022-09-17T03:46:35;62650.44;;;-143.06;100.00
13422;BME280;6782;55.904;13.396;2022-09-17T03:49:22;62650.44;;;-143.06;100.00
13422;BME280;6782;55.904;13.396;2022-09-17T03:52:10;62650.44;;;-143.06;100.00
13422;BME280;6782;55.904;13.396;2022-09-17T03:54:58;67340.44;;;10.27;100.00
13422;BME280;6782;55.904;13.396;2022-09-17T03:57:45;67337.75;;;10.25;100.00
13422;BME280;6782;55.904;13.396;2022-09-17T04:00:33;67334.34;;;10.23;100.00
13422;BME280;6782;55.904;13.396;2022-09-17T04:03:23;67331.22;;;10.20;100.00
13422;BME280;6782;55.904;13.396;2022-09-17T04:06:11;67327.50;;;10.17;100.00
13422;BME280;6782;55.904;13.396;2022-09-17T04:08:58;67323.81;;;10.14;100.00
13422;BME280;6782;55.904;13.396;2022-09-17T04:11:48;67319.63;;;10.10;100.00
13422;BME280;6782;55.904;13.396;2022-09-17T04:14:36;67315.13;;;10.07;100.00
13422;BME280;6782;55.904;13.396;2022-09-17T04:17:23;67310.81;;;10.03;100.00
13422;BME280;6782;55.904;13.396;2022-09-17T04:20:12;67304.00;;;9.98;100.00
13422;BME280;6782;55.904;13.396;2022-09-17T04:23:00;67298.50;;;9.93;100.00
13422;BME280;6782;55.904;13.396;2022-09-17T04:25:47;67293.75;;;9.89;100.00
13422;BME280;6782;55.904;13.396;2022-09-17T04:28:35;67289.16;;;9.85;100.00
13422;BME280;6782;55.904;13.396;2022-09-17T04:31:22;67284.56;;;9.81;100.00
13422;BME280;6782;55.904;13.396;2022-09-17T04:34:11;67278.81;;;9.76;100.00
13422;BME280;6782;55.904;13.396;2022-09-17T04:37:01;67273.28;;;9.72;100.00
13422;BME280;6782;55.904;13.396;2022-09-17T04:39:48;67268.56;;;9.68;100.00
13422;BME280;6782;55.904;13.396;2022-09-17T04:42:36;67263.97;;;9.64;100.00
13422;BME280;6782;55.904;13.396;2022-09-17T04:45:24;67259.25;;;9.59;100.00
13422;BME280;6782;55.904;13.396;2022-09-17T04:48:11;67254.34;;;9.55;100.00
13422;BME280;6782;55.904;13.396;2022-09-17T04:50:59;67250.50;;;9.52;100.00
13422;BME280;6782;55.904;13.396;2022-09-17T04:53:48;67246.22;;;9.48;100.00
13422;BME280;6782;55.904;13.396;2022-09-17T04:56:36;67242.38;;;9.45;100.00
13422;BME280;6782;55.904;13.396;2022-09-17T04:59:23;67238.97;;;9.42;100.00
13422;BME280;6782;55.904;13.396;2022-09-17T05:02:11;67236.28;;;9.40;100.00
13422;BME280;6782;55.904;13.396;2022-09-17T05:04:59;67232.75;;;9.37;100.00
13422;BME280;6782;55.904;13.396;2022-09-17T05:07:46;67229.19;;;9.34;100.00
13422;BME280;6782;55.904;13.396;2022-09-17T05:10:35;67226.34;;;9.32;100.00
13422;BME280;6782;55.904;13.396;2022-09-17T05:13:23;67223.97;;;9.30;100.00
13422;BME280;6782;55.904;13.396;2022-09-17T05:16:10;67222.16;;;9.28;100.00
13422;BME280;6782;55.904;13.396;2022-09-17T05:18:57;67221.44;;;9.28;100.00
13422;BME280;6782;55.904;13.396;2022-09-17T05:21:44;67221.28;;;9.28;100.00
13422;BME280;6782;55.904;13.396;2022-09-17T05:24:31;67221.88;;;9.28;100.00
13422;BME280;6782;55.904;13.396;2022-09-17T05:27:25;67222.16;;;9.29;100.00
13422;BME280;6782;55.904;13.396;2022-09-17T05:30:12;67223.63;;;9.30;100.00
13422;BME280;6782;55.904;13.396;2022-09-17T05:33:00;67224.84;;;9.31;100.00
13422;BME280;6782;55.904;13.396;2022-09-17T05:35:47;67227.06;;;9.32;100.00
13422;BME280;6782;55.904;13.396;2022-09-17T05:38:35;67229.28;;;9.34;100.00
13422;BME280;6782;55.904;13.396;2022-09-17T05:41:22;67232.28;;;9.37;100.00
13422;BME280;6782;55.904;13.396;2022-09-17T05:44:10;67235.66;;;9.40;100.00
13422;BME280;6782;55.904;13.396;2022-09-17T05:46:57;67239.97;;;9.43;100.00
13422;BME280;6782;55.904;13.396;2022-09-17T05:49:45;67243.66;;;9.47;100.00
13422;BME280;6782;55.904;13.396;2022-09-17T05:52:33;67249.44;;;9.51;100.00
13422;BME280;6782;55.904;13.396;2022-09-17T05:55:22;67255.53;;;9.56;100.00
13422;BME280;6782;55.904;13.396;2022-09-17T05:58:11;67261.91;;;9.62;100.00
13422;BME280;6782;55.904;13.396;2022-09-17T06:01:01;67268.84;;;9.68;100.00
13422;BME280;6782;55.904;13.396;2022-09-17T06:03:48;67277.63;;;9.75;100.00
13422;BME280;6782;55.904;13.396;2022-09-17T06:06:36;67287.47;;;9.84;100.00
13422;BME280;6782;55.904;13.396;2022-09-17T06:09:24;67299.19;;;9.94;100.00
13422;BME280;6782;55.904;13.396;2022-09-17T06:12:11;67311.06;;;10.04;100.00
13422;BME280;6782;55.904;13.396;2022-09-17T06:14:58;67322.53;;;10.14;100.00
13422;BME280;6782;55.904;13.396;2022-09-17T06:17:47;67334.13;;;10.23;100.00
13422;BME280;6782;55.904;13.396;2022-09-17T06:20:34;67345.50;;;10.33;100.00
13422;BME280;6782;55.904;13.396;2022-09-17T06:23:21;67356.66;;;10.42;100.00
13422;BME280;6782;55.904;13.396;2022-09-17T06:26:10;67367.78;;;10.52;100.00
13422;BME280;6782;55.904;13.396;2022-09-17T06:28:58;67379.09;;;10.61;100.00
13422;BME280;6782;55.904;13.396;2022-09-17T06:31:47;67389.31;;;10.70;100.00
13422;BME280;6782;55.904;13.396;2022-09-17T06:34:35;67398.34;;;10.78;100.00
13422;BME280;6782;55.904;13.396;2022-09-17T06:37:26;67408.63;;;10.86;100.00
13422;BME280;6782;55.904;13.396;2022-09-17T06:40:13;67418.88;;;10.94;100.00
13422;BME280;6782;55.904;13.396;2022-09-17T06:43:00;67428.50;;;11.03;100.00
13422;BME280;6782;55.904;13.396;2022-09-17T06:45:51;67437.91;;;11.10;100.00
13422;BME280;6782;55.904;13.396;2022-09-17T06:48:38;67447.25;;;11.18;100.00
13422;BME280;6782;55.904;13.396;2022-09-17T06:51:27;67456.31;;;11.26;100.00
13422;BME280;6782;55.904;13.396;2022-09-17T06:54:14;67465.19;;;11.34;100.00
13422;BME280;6782;55.904;13.396;2022-09-17T06:57:01;67472.50;;;11.40;100.00
13422;BME280;6782;55.904;13.396;2022-09-17T06:59:48;67480.38;;;11.46;100.00
13422;BME280;6782;55.904;13.396;2022-09-17T07:02:36;67488.28;;;11.53;100.00
13422;BME280;6782;55.904;13.396;2022-09-17T07:05:24;67495.09;;;11.58;100.00
13422;BME280;6782;55.904;13.396;2022-09-17T07:08:14;67501.31;;;11.64;100.00
13422;BME280;6782;55.904;13.396;2022-09-17T07:11:01;67507.88;;;11.69;100.00
13422;BME280;6782;55.904;13.396;2022-09-17T07:13:48;67514.88;;;11.75;100.00
13422;BME280;6782;55.904;13.396;2022-09-17T07:16:35;67522.00;;;11.81;100.00
13422;BME280;6782;55.904;13.396;2022-09-17T07:19:23;67528.69;;;11.87;100.00
13422;BME280;6782;55.904;13.396;2022-09-17T07:22:10;67535.53;;;11.92;100.00
13422;BME280;6782;55.904;13.396;2022-09-17T07:25:00;67542.06;;;11.98;100.00
13422;BME280;6782;55.904;13.396;2022-09-17T07:27:47;67549.66;;;12.04;100.00
13422;BME280;6782;55.904;13.396;2022-09-17T07:30:34;67557.84;;;12.11;100.00
13422;BME280;6782;55.904;13.396;2022-09-17T07:33:23;67565.84;;;12.18;100.00
13422;BME280;6782;55.904;13.396;2022-09-17T07:36:12;67573.69;;;12.25;100.00
13422;BME280;6782;55.904;13.396;2022-09-17T07:39:00;67580.97;;;12.31;100.00
13422;BME280;6782;55.904;13.396;2022-09-17T07:41:49;67589.00;;;12.38;100.00
13422;BME280;6782;55.904;13.396;2022-09-17T07:44:37;67595.97;;;12.44;100.00
13422;BME280;6782;55.904;13.396;2022-09-17T07:47:27;67603.88;;;12.50;100.00
13422;BME280;6782;55.904;13.396;2022-09-17T07:50:15;67612.50;;;12.58;100.00
13422;BME280;6782;55.904;13.396;2022-09-17T07:53:02;67618.63;;;12.63;100.00
13422;BME280;6782;55.904;13.396;2022-09-17T07:55:51;67624.22;;;12.68;100.00
13422;BME280;6782;55.904;13.396;2022-09-17T07:58:41;67632.09;;;12.75;100.00
13422;BME280;6782;55.904;13.396;2022-09-17T08:01:30;67639.22;;;12.81;100.00
13422;BME280;6782;55.904;13.396;2022-09-17T08:04:19;67645.63;;;12.86;100.00
13422;BME280;6782;55.904;13.396;2022-09-17T08:07:06;67654.25;;;12.93;100.00
13422;BME280;6782;55.904;13.396;2022-09-17T08:09:53;67661.72;;;12.99;100.00
13422;BME280;6782;55.904;13.396;2022-09-17T08:12:41;67669.16;;;13.06;100.00
13422;BME280;6782;55.904;13.396;2022-09-17T08:15:30;67677.13;;;13.12;100.00
13422;BME280;6782;55.904;13.396;2022-09-17T08:18:17;67685.44;;;13.19;100.00
13422;BME280;6782;55.904;13.396;2022-09-17T08:21:06;67693.28;;;13.26;100.00
13422;BME280;6782;55.904;13.396;2022-09-17T08:23:54;67700.31;;;13.32;100.00
13422;BME280;6782;55.904;13.396;2022-09-17T08:26:42;62650.44;;;-143.06;100.00
13422;BME280;6782;55.904;13.396;2022-09-17T08:29:29;62650.44;;;-143.06;100.00
13422;BME280;6782;55.904;13.396;2022-09-17T08:32:18;62650.44;;;-143.06;100.00
13422;BME280;6782;55.904;13.396;2022-09-17T08:35:05;62650.44;;;-143.06;100.00
13422;BME280;6782;55.904;13.396;2022-09-17T08:37:53;62650.44;;;-143.06;100.00
13422;BME280;6782;55.904;13.396;2022-09-17T08:40:59;62650.44;;;-143.06;100.00
13422;BME280;6782;55.904;13.396;2022-09-17T08:43:53;62650.44;;;-143.06;100.00
13422;BME280;6782;55.904;13.396;2022-09-17T08:46:46;62650.44;;;-143.06;100.00
13422;BME280;6782;55.904;13.396;2022-09-17T08:49:42;62650.44;;;-143.06;100.00
13422;BME280;6782;55.904;13.396;2022-09-17T08:52:47;62650.44;;;-143.06;100.00
13422;BME280;6782;55.904;13.396;2022-09-17T08:55:44;62650.44;;;-143.06;100.00
13422;BME280;6782;55.904;13.396;2022-09-17T08:59:00;62650.44;;;-143.06;100.00
13422;BME280;6782;55.904;13.396;2022-09-17T09:01:56;62650.44;;;-143.06;100.00
13422;BME280;6782;55.904;13.396;2022-09-17T09:05:02;62650.44;;;-143.06;100.00
13422;BME280;6782;55.904;13.396;2022-09-17T09:07:54;62650.44;;;-143.06;100.00
13422;BME280;6782;55.904;13.396;2022-09-17T09:10:47;62650.44;;;-143.06;100.00
13422;BME280;6782;55.904;13.396;2022-09-17T09:13:39;62650.44;;;-143.06;100.00
13422;BME280;6782;55.904;13.396;2022-09-17T09:16:30;62650.44;;;-143.06;100.00
13422;BME280;6782;55.904;13.396;2022-09-17T09:19:22;62650.44;;;-143.06;100.00
13422;BME280;6782;55.904;13.396;2022-09-17T09:22:27;62650.44;;;-143.06;100.00
13422;BME280;6782;55.904;13.396;2022-09-17T09:25:22;62650.44;;;-143.06;100.00
13422;BME280;6782;55.904;13.396;2022-09-17T09:28:17;62650.44;;;-143.06;100.00
13422;BME280;6782;55.904;13.396;2022-09-17T09:31:31;62650.44;;;-143.06;100.00
13422;BME280;6782;55.904;13.396;2022-09-17T09:34:21;62650.44;;;-143.06;100.00
13422;BME280;6782;55.904;13.396;2022-09-17T09:37:15;62650.44;;;-143.06;100.00
13422;BME280;6782;55.904;13.396;2022-09-17T09:40:18;62650.44;;;-143.06;100.00
13422;BME280;6782;55.904;13.396;2022-09-17T09:43:15;62650.44;;;-143.06;100.00
13422;BME280;6782;55.904;13.396;2022-09-17T09:46:14;62650.44;;;-143.06;100.00
13422;BME280;6782;55.904;13.396;2022-09-17T09:49:15;62650.44;;;-143.06;100.00
13422;BME280;6782;55.904;13.396;2022-09-17T09:52:13;62650.44;;;-143.06;100.00
13422;BME280;6782;55.904;13.396;2022-09-17T09:55:20;62650.44;;;-143.06;100.00
13422;BME280;6782;55.904;13.396;2022-09-17T09:58:16;62650.44;;;-143.06;100.00
13422;BME280;6782;55.904;13.396;2022-09-17T10:01:12;62650.44;;;-143.06;100.00
13422;BME280;6782;55.904;13.396;2022-09-17T10:04:00;62650.44;;;-143.06;100.00
13422;BME280;6782;55.904;13.396;2022-09-17T10:06:50;62650.44;;;-143.06;100.00
13422;BME280;6782;55.904;13.396;2022-09-17T10:09:44;62650.44;;;-143.06;100.00
13422;BME280;6782;55.904;13.396;2022-09-17T10:12:33;62650.44;;;-143.06;100.00
13422;BME280;6782;55.904;13.396;2022-09-17T10:15:25;62650.44;;;-143.06;100.00
13422;BME280;6782;55.904;13.396;2022-09-17T10:18:17;62650.44;;;-143.06;100.00
13422;BME280;6782;55.904;13.396;2022-09-17T10:21:04;62650.44;;;-143.06;100.00
13422;BME280;6782;55.904;13.396;2022-09-17T10:23:51;62650.44;;;-143.06;100.00
13422;BME280;6782;55.904;13.396;2022-09-17T10:26:39;62650.44;;;-143.06;100.00
13422;BME280;6782;55.904;13.396;2022-09-17T10:29:27;62650.44;;;-143.06;100.00
13422;BME280;6782;55.904;13.396;2022-09-17T10:32:16;62650.44;;;-143.06;100.00
13422;BME280;6782;55.904;13.396;2022-09-17T10:38:29;62650.44;;;-143.06;100.00
13422;BME280;6782;55.904;13.396;2022-09-17T10:41:18;62650.44;;;-143.06;100.00
13422;BME280;6782;55.904;13.396;2022-09-17T10:44:16;62650.44;;;-143.06;100.00
13422;BME280;6782;55.904;13.396;2022-09-17T10:47:11;62650.44;;;-143.06;100.00
13422;BME280;6782;55.904;13.396;2022-09-17T10:50:01;62650.44;;;-143.06;100.00
13422;BME280;6782;55.904;13.396;2022-09-17T10:52:52;62650.44;;;-143.06;100.00
13422;BME280;6782;55.904;13.396;2022-09-17T10:55:43;62650.44;;;-143.06;100.00
13422;BME280;6782;55.904;13.396;2022-09-17T10:58:43;62650.44;;;-143.06;100.00
13422;BME280;6782;55.904;13.396;2022-09-17T11:01:54;62650.44;;;-143.06;100.00
13422;BME280;6782;55.904;13.396;2022-09-17T11:04:51;62650.44;;;-143.06;100.00
13422;BME280;6782;55.904;13.396;2022-09-17T11:07:43;62650.44;;;-143.06;100.00
13422;BME280;6782;55.904;13.396;2022-09-17T11:10:36;62650.44;;;-143.06;100.00
13422;BME280;6782;55.904;13.396;2022-09-17T11:13:31;62650.44;;;-143.06;100.00
13422;BME280;6782;55.904;13.396;2022-09-17T11:16:33;62650.44;;;-143.06;100.00
13422;BME280;6782;55.904;13.396;2022-09-17T11:19:31;62650.44;;;-143.06;100.00
13422;BME280;6782;55.904;13.396;2022-09-17T11:22:28;62650.44;;;-143.06;100.00
13422;BME280;6782;55.904;13.396;2022-09-17T11:25:37;62650.44;;;-143.06;100.00
13422;BME280;6782;55.904;13.396;2022-09-17T11:28:42;62650.44;;;-143.06;100.00
13422;BME280;6782;55.904;13.396;2022-09-17T11:31:36;62650.44;;;-143.06;100.00
13422;BME280;6782;55.904;13.396;2022-09-17T11:34:29;62650.44;;;-143.06;100.00
13422;BME280;6782;55.904;13.396;2022-09-17T11:37:24;62650.44;;;-143.06;100.00
13422;BME280;6782;55.904;13.396;2022-09-17T11:40:18;62650.44;;;-143.06;100.00
13422;BME280;6782;55.904;13.396;2022-09-17T11:43:14;62650.44;;;-143.06;100.00
13422;BME280;6782;55.904;13.396;2022-09-17T11:46:08;62650.44;;;-143.06;100.00
13422;BME280;6782;55.904;13.396;2022-09-17T11:48:59;62650.44;;;-143.06;100.00
13422;BME280;6782;55.904;13.396;2022-09-17T11:51:55;62650.44;;;-143.06;100.00
13422;BME280;6782;55.904;13.396;2022-09-17T11:54:52;62650.44;;;-143.06;100.00
13422;BME280;6782;55.904;13.396;2022-09-17T11:57:42;62650.44;;;-143.06;100.00
13422;BME280;6782;55.904;13.396;2022-09-17T12:00:43;62650.44;;;-143.06;100.00
13422;BME280;6782;55.904;13.396;2022-09-17T12:03:35;62650.44;;;-143.06;100.00
13422;BME280;6782;55.904;13.396;2022-09-17T12:06:45;62650.44;;;-143.06;100.00
13422;BME280;6782;55.904;13.396;2022-09-17T12:09:40;62650.44;;;-143.06;100.00
13422;BME280;6782;55.904;13.396;2022-09-17T12:12:31;62650.44;;;-143.06;100.00
13422;BME280;6782;55.904;13.396;2022-09-17T12:15:22;62650.44;;;-143.06;100.00
13422;BME280;6782;55.904;13.396;2022-09-17T12:18:19;62650.44;;;-143.06;100.00
13422;BME280;6782;55.904;13.396;2022-09-17T12:21:14;62650.44;;;-143.06;100.00
13422;BME280;6782;55.904;13.396;2022-09-17T12:24:09;62650.44;;;-143.06;100.00
13422;BME280;6782;55.904;13.396;2022-09-17T12:27:06;62650.44;;;-143.06;100.00
13422;BME280;6782;55.904;13.396;2022-09-17T12:30:05;62650.44;;;-143.06;100.00
13422;BME280;6782;55.904;13.396;2022-09-17T12:33:05;62650.44;;;-143.06;100.00
13422;BME280;6782;55.904;13.396;2022-09-17T12:36:19;62650.44;;;-143.06;100.00
13422;BME280;6782;55.904;13.396;2022-09-17T12:39:43;62650.44;;;-143.06;100.00
13422;BME280;6782;55.904;13.396;2022-09-17T12:42:45;62650.44;;;-143.06;100.00
13422;BME280;6782;55.904;13.396;2022-09-17T12:45:47;62650.44;;;-143.06;100.00
13422;BME280;6782;55.904;13.396;2022-09-17T12:51:53;62650.44;;;-143.06;100.00
13422;BME280;6782;55.904;13.396;2022-09-17T12:57:57;62650.44;;;-143.06;100.00
13422;BME280;6782;55.904;13.396;2022-09-17T13:00:52;62650.44;;;-143.06;100.00
13422;BME280;6782;55.904;13.396;2022-09-17T13:03:44;62650.44;;;-143.06;100.00
13422;BME280;6782;55.904;13.396;2022-09-17T13:06:55;62650.44;;;-143.06;100.00
13422;BME280;6782;55.904;13.396;2022-09-17T13:10:02;62650.44;;;-143.06;100.00
13422;BME280;6782;55.904;13.396;2022-09-17T13:12:57;62650.44;;;-143.06;100.00
13422;BME280;6782;55.904;13.396;2022-09-17T13:15:57;62650.44;;;-143.06;100.00
13422;BME280;6782;55.904;13.396;2022-09-17T13:18:53;62650.44;;;-143.06;100.00
13422;BME280;6782;55.904;13.396;2022-09-17T13:21:50;62650.44;;;-143.06;100.00
13422;BME280;6782;55.904;13.396;2022-09-17T13:24:39;62650.44;;;-143.06;100.00
13422;BME280;6782;55.904;13.396;2022-09-17T13:27:26;62650.44;;;-143.06;100.00
13422;BME280;6782;55.904;13.396;2022-09-17T13:30:15;62650.44;;;-143.06;100.00
13422;BME280;6782;55.904;13.396;2022-09-17T13:33:04;62650.44;;;-143.06;100.00
13422;BME280;6782;55.904;13.396;2022-09-17T13:35:51;62650.44;;;-143.06;100.00
13422;BME280;6782;55.904;13.396;2022-09-17T13:38:40;62650.44;;;-143.06;100.00
13422;BME280;6782;55.904;13.396;2022-09-17T13:41:31;62650.44;;;-143.06;100.00
13422;BME280;6782;55.904;13.396;2022-09-17T13:44:22;62650.44;;;-143.06;100.00
13422;BME280;6782;55.904;13.396;2022-09-17T13:47:14;62650.44;;;-143.06;100.00
13422;BME280;6782;55.904;13.396;2022-09-17T13:50:07;62650.44;;;-143.06;100.00
13422;BME280;6782;55.904;13.396;2022-09-17T13:52:56;62650.44;;;-143.06;100.00
13422;BME280;6782;55.904;13.396;2022-09-17T13:55:47;62650.44;;;-143.06;100.00
13422;BME280;6782;55.904;13.396;2022-09-17T13:58:36;62650.44;;;-143.06;100.00
13422;BME280;6782;55.904;13.396;2022-09-17T14:04:49;62650.44;;;-143.06;100.00
13422;BME280;6782;55.904;13.396;2022-09-17T14:07:46;62650.44;;;-143.06;100.00
13422;BME280;6782;55.904;13.396;2022-09-17T14:10:39;62650.44;;;-143.06;100.00
13422;BME280;6782;55.904;13.396;2022-09-17T14:13:41;62650.44;;;-143.06;100.00
13422;BME280;6782;55.904;13.396;2022-09-17T14:16:43;62650.44;;;-143.06;100.00
13422;BME280;6782;55.904;13.396;2022-09-17T14:19:47;62650.44;;;-143.06;100.00
13422;BME280;6782;55.904;13.396;2022-09-17T14:22:35;62650.44;;;-143.06;100.00
13422;BME280;6782;55.904;13.396;2022-09-17T14:25:30;62650.44;;;-143.06;100.00
13422;BME280;6782;55.904;13.396;2022-09-17T14:28:25;62650.44;;;-143.06;100.00
13422;BME280;6782;55.904;13.396;2022-09-17T14:31:17;62650.44;;;-143.06;100.00
13422;BME280;6782;55.904;13.396;2022-09-17T14:34:10;62650.44;;;-143.06;100.00
13422;BME280;6782;55.904;13.396;2022-09-17T14:37:01;62650.44;;;-143.06;100.00
13422;BME280;6782;55.904;13.396;2022-09-17T14:39:48;62650.44;;;-143.06;100.00
13422;BME280;6782;55.904;13.396;2022-09-17T14:42:41;62650.44;;;-143.06;100.00
13422;BME280;6782;55.904;13.396;2022-09-17T14:45:31;62650.44;;;-143.06;100.00
13422;BME280;6782;55.904;13.396;2022-09-17T14:48:30;62650.44;;;-143.06;100.00
13422;BME280;6782;55.904;13.396;2022-09-17T14:51:26;62650.44;;;-143.06;100.00
13422;BME280;6782;55.904;13.396;2022-09-17T14:54:22;62650.44;;;-143.06;100.00
13422;BME280;6782;55.904;13.396;2022-09-17T14:57:19;62650.44;;;-143.06;100.00
13422;BME280;6782;55.904;13.396;2022-09-17T15:00:18;62650.44;;;-143.06;100.00